Terminal Aerodrome Forecast
Issued by NWS

Home | Current Version | Previous Version | Text Only | Print | Product List | Glossary On
Versions: 1 2 3 4 5 6 7 8 9 10 11 12 13 14
920
FTUS43 KMQT 240534
TAFCMX
TAF
KCMX 240534Z 2406/2506 32003KT P6SM SCT200
     FM240800 31003KT 4SM BR SCT200
     FM241000 29003KT 2SM BR FEW150
     FM241200 29003KT 6SM BR FEW150
     FM242200 02003KT P6SM SKC
     FM250200 11005KT P6SM SKC=

USA.gov is the U.S. government's official web portal to all federal, state and local government web resources and services.